Hakalau, HI (96710)

7:42 PM HST on February 10, 2016 (GMT -1000)
Lepoloa | | Change Station
CLOSE
Current Station
Personal Weather Station
Location: Pepeekeo, HI
Elevation: 417 ft
Nearby Weather Stations
Active Advisory: High Surf Advisory

Elev 417 ft 19.91 °N, 155.15 °W | Updated 5 seconds ago

Scattered Clouds
Scattered Clouds
70.9 °F
Feels Like 75 °F
N
2.5
Wind Variable Wind from WSW
Gusts 2.5 mph

Today
High -- | Low -- °F
--% Chance of Precip.
Yesterday
High -- | Low -- °F
Precip. -- in
Pressure 30.04 in
Visibility 10.0 miles
Clouds Few 3300 ft
Scattered Clouds 4200 ft
Heat Index 75 °F
Dew Point 58 °F
Humidity 64%
Rainfall 0.00 in
Snow Depth Not available.
6:52 AM 6:17 PM
Waxing Crescent, 9% visible
METAR PHTO 110453Z 01003KT 10SM FEW033 SCT042 22/17 A3004 RMK AO2 SLP172 T02220167
Pressure 30.04 in
Visibility 10.0 miles
Clouds Few 3300 ft
Scattered Clouds 4200 ft
Heat Index 75 °F
Dew Point 58 °F
Humidity 64%
Rainfall 0.00 in
Snow Depth Not available.
6:52 AM 6:17 PM
Waxing Crescent, 9% visible
METAR PHTO 110453Z 01003KT 10SM FEW033 SCT042 22/17 A3004 RMK AO2 SLP172 T02220167

10-Day Weather Forecast

Almanac

Astronomy

Feb. 10, 2016 Rise Set
Actual Time
Civil Twilight
Nautical Twilight
Astronomical Twilight
Moon
Length of Visible Light
Length of Day
Tomorrow will be .
, % of the Moon is Illuminated

Today's Extremes

State Highs State Lows

Community

WunderPhotos

Upload Photos

1,892,023 photos uploaded!

WunderBlog® & News

Nearby

Air Quality

  Air Quality AQ Index Pollutant
Not available.

Snow Depth

Station Depth Elevation

Earthquake Activity

City Distance Mag. Time & Date
Minimum magnitude displayed is 2.5.

Coastal Water Temperatures

Place Temperature

Stations

Nearby Weather Stations

Station Location Temp. Windchill Dew Point Humidity Wind Precip. Elev Updated Type
                   

Watches & Warnings

High Surf Advisory
Issued: 3:41 PM HST Feb. 10, 2016 – National Weather Service

... High surf advisory remains in effect until 6 PM HST Thursday...

* surf... along north facing shores of The Big Island... building to
12 to 16 feet tonight... and remaining steady on Thursday.

* Timing... through Thursday afternoon.

* Impacts... moderate... expect strong breaking waves... shore
break... and strong longshore and rip currents making swimming
difficult and dangerous.

Precautionary/preparedness actions...

Beachgoers... swimmers... and surfers should heed all advice given
by ocean safety officials and exercise caution. Know your
limits... when in doubt... do not go out.



Birchard